Time;durP1;ratioP1;P1;durP2;ratioP2;P2;SDS_P1;SDS_P2;PMS_P1;PMS_P2;Temp;Humidity;BMP_temperature;BMP_pressure;BME280_temperature;BME280_humidity;BME280_pressure;Samples;Min_cycle;Max_cycle;Signal;HPM_P1;HPM_P2
2023/07/05 00:00:40;;;;;;;6.40;3.78;;;;;;;;;;5026405;28;20274;-82
2023/07/05 00:03:06;;;;;;;7.93;3.78;;;;;;;;;;5010933;28;20229;-81
2023/07/05 00:05:36;;;;;;;6.38;3.97;;;;;;;;;;4999706;28;20215;-81
2023/07/05 00:08:01;;;;;;;7.60;4.30;;;;;;;;;;5035371;28;20284;-80
2023/07/05 00:10:27;;;;;;;9.48;4.30;;;;;;;;;;5033214;28;20223;-78
2023/07/05 00:12:55;;;;;;;7.20;4.50;;;;;;;;;;5050426;28;20223;-79
2023/07/05 00:15:20;;;;;;;8.55;4.00;;;;;;;;;;5045324;28;20299;-80
2023/07/05 00:17:50;;;;;;;8.23;3.97;;;;;;;;;;5040855;28;20219;-81
2023/07/05 00:20:16;;;;;;;8.52;4.30;;;;;;;;;;5037122;28;20227;-82
2023/07/05 00:22:42;;;;;;;10.73;4.53;;;;;;;;;;5019325;28;20273;-83
2023/07/05 00:25:09;;;;;;;9.13;4.00;;;;;;;;;;5016630;28;20649;-83
2023/07/05 00:27:35;;;;;;;6.68;4.53;;;;;;;;;;5011417;28;20651;-81
2023/07/05 00:30:01;;;;;;;8.40;4.53;;;;;;;;;;4991403;28;20220;-82
2023/07/05 00:32:26;;;;;;;10.85;4.93;;;;;;;;;;5012707;28;20223;-82
2023/07/05 00:34:54;;;;;;;7.78;4.32;;;;;;;;;;5026899;28;20273;-83
2023/07/05 00:37:20;;;;;;;6.68;4.68;;;;;;;;;;5010707;28;20220;-82
2023/07/05 00:39:45;;;;;;;6.68;4.50;;;;;;;;;;5028085;28;20215;-84
2023/07/05 00:42:11;;;;;;;8.43;5.20;;;;;;;;;;5008225;28;20227;-84
2023/07/05 00:44:39;;;;;;;9.05;4.88;;;;;;;;;;4995522;28;20215;-81
2023/07/05 00:47:25;;;;;;;8.35;4.72;;;;;;;;;;5022490;28;20618;-81
2023/07/05 00:49:53;;;;;;;9.32;5.32;;;;;;;;;;5030160;28;20232;-83
2023/07/05 00:52:18;;;;;;;5.53;4.57;;;;;;;;;;5028079;28;20297;-83
2023/07/05 00:54:48;;;;;;;7.18;4.90;;;;;;;;;;4998999;28;20732;-84
2023/07/05 00:57:29;;;;;;;8.13;5.00;;;;;;;;;;5016670;28;20211;-85
2023/07/05 01:00:14;;;;;;;9.00;5.53;;;;;;;;;;5028733;28;20223;-83
2023/07/05 01:02:43;;;;;;;10.45;5.70;;;;;;;;;;4998345;28;20598;-85
2023/07/05 01:05:09;;;;;;;8.85;5.60;;;;;;;;;;5008117;28;20239;-82
2023/07/05 01:07:37;;;;;;;8.50;5.60;;;;;;;;;;5024619;28;20305;-83
2023/07/05 01:10:05;;;;;;;8.70;5.90;;;;;;;;;;5008985;28;20223;-82
2023/07/05 01:12:49;;;;;;;9.77;6.43;;;;;;;;;;5012270;28;20220;-82
2023/07/05 01:15:18;;;;;;;7.18;5.75;;;;;;;;;;5033676;28;20698;-86
2023/07/05 01:18:12;;;;;;;9.03;6.30;;;;;;;;;;5022764;28;20224;-84
2023/07/05 01:20:51;;;;;;;10.57;6.25;;;;;;;;;;5009389;28;20215;-83
2023/07/05 01:23:26;;;;;;;10.07;6.22;;;;;;;;;;4996708;28;20225;-83
2023/07/05 01:26:10;;;;;;;8.98;5.85;;;;;;;;;;5063356;28;20762;-84
2023/07/05 01:28:40;;;;;;;8.10;5.80;;;;;;;;;;5043778;28;20218;-84
2023/07/05 01:31:17;;;;;;;8.70;5.90;;;;;;;;;;5044679;28;20247;-83
2023/07/05 01:33:49;;;;;;;10.82;6.15;;;;;;;;;;5032069;28;20239;-81
2023/07/05 01:36:15;;;;;;;10.25;6.20;;;;;;;;;;5040234;28;20246;-82
2023/07/05 01:38:43;;;;;;;7.22;5.63;;;;;;;;;;5009335;28;20277;-84
2023/07/05 01:41:08;;;;;;;8.38;6.35;;;;;;;;;;5023807;28;20351;-83
2023/07/05 01:43:40;;;;;;;11.13;6.55;;;;;;;;;;5015355;28;20227;-83
2023/07/05 01:46:25;;;;;;;10.38;6.25;;;;;;;;;;5008233;28;20266;-83
2023/07/05 01:49:15;;;;;;;10.75;6.60;;;;;;;;;;5014252;28;20349;-83
2023/07/05 01:51:48;;;;;;;9.60;6.18;;;;;;;;;;5036882;28;20226;-84
2023/07/05 01:54:23;;;;;;;9.02;5.88;;;;;;;;;;5033222;28;20232;-81
2023/07/05 01:56:58;;;;;;;7.28;5.22;;;;;;;;;;5048999;28;20214;-82
2023/07/05 01:59:27;;;;;;;8.90;5.50;;;;;;;;;;5000826;28;20313;-81
2023/07/05 02:01:53;;;;;;;10.52;5.80;;;;;;;;;;5032988;28;20246;-81
2023/07/05 02:04:21;;;;;;;8.82;5.50;;;;;;;;;;5013837;28;20575;-82
2023/07/05 02:06:47;;;;;;;6.68;5.30;;;;;;;;;;5012466;28;20223;-83
2023/07/05 02:09:15;;;;;;;12.00;5.72;;;;;;;;;;5027802;28;20230;-81
2023/07/05 02:11:40;;;;;;;7.47;5.03;;;;;;;;;;5001196;28;20219;-85
2023/07/05 02:14:10;;;;;;;8.35;5.45;;;;;;;;;;5007617;28;20694;-83
2023/07/05 02:16:38;;;;;;;10.30;5.68;;;;;;;;;;5015823;28;20220;-83
2023/07/05 02:19:05;;;;;;;7.85;5.47;;;;;;;;;;5001050;28;20224;-83
2023/07/05 02:21:31;;;;;;;7.55;4.75;;;;;;;;;;5004155;28;20216;-82
2023/07/05 02:23:57;;;;;;;8.20;5.18;;;;;;;;;;4998442;28;20228;-83
2023/07/05 02:26:22;;;;;;;6.22;5.05;;;;;;;;;;5003880;28;20235;-81
2023/07/05 02:28:48;;;;;;;9.55;5.45;;;;;;;;;;5010037;28;20341;-81
2023/07/05 02:31:13;;;;;;;6.57;5.13;;;;;;;;;;4998531;28;20227;-83
2023/07/05 02:33:40;;;;;;;8.13;5.25;;;;;;;;;;5013323;28;20233;-82
2023/07/05 02:36:11;;;;;;;7.82;4.90;;;;;;;;;;5024876;28;20219;-84
2023/07/05 02:38:37;;;;;;;8.73;5.55;;;;;;;;;;5009392;28;20232;-80
2023/07/05 02:41:05;;;;;;;9.95;4.78;;;;;;;;;;5025030;28;20242;-83
2023/07/05 02:43:31;;;;;;;8.38;4.97;;;;;;;;;;5016631;28;20241;-82
2023/07/05 02:45:58;;;;;;;7.78;5.30;;;;;;;;;;5009165;28;20231;-82
2023/07/05 02:48:24;;;;;;;11.02;5.25;;;;;;;;;;5005883;28;20224;-83
2023/07/05 02:50:50;;;;;;;7.72;5.32;;;;;;;;;;5005140;28;20638;-83
2023/07/05 02:53:15;;;;;;;7.25;5.00;;;;;;;;;;5006381;28;20234;-84
2023/07/05 02:55:41;;;;;;;10.25;5.43;;;;;;;;;;5037310;28;20619;-82
2023/07/05 02:58:09;;;;;;;9.30;5.13;;;;;;;;;;5026825;28;20267;-84
2023/07/05 03:00:40;;;;;;;7.47;4.78;;;;;;;;;;5013407;28;20216;-84
2023/07/05 03:03:05;;;;;;;7.80;5.40;;;;;;;;;;5025849;28;20227;-81
2023/07/05 03:05:31;;;;;;;9.35;4.93;;;;;;;;;;5041364;28;20239;-82
2023/07/05 03:07:56;;;;;;;7.53;5.35;;;;;;;;;;5033235;28;20607;-85
2023/07/05 03:10:22;;;;;;;10.73;5.10;;;;;;;;;;4999710;28;20246;-82
2023/07/05 03:12:47;;;;;;;7.32;4.95;;;;;;;;;;5007566;28;20219;-82
2023/07/05 03:15:15;;;;;;;7.50;5.93;;;;;;;;;;5014430;28;20239;-82
2023/07/05 03:17:41;;;;;;;6.15;4.97;;;;;;;;;;5025828;28;20220;-81
2023/07/05 03:20:09;;;;;;;7.43;5.10;;;;;;;;;;5009120;28;20703;-80
2023/07/05 03:22:37;;;;;;;13.63;5.75;;;;;;;;;;5017829;28;20691;-80
2023/07/05 03:25:03;;;;;;;6.82;5.20;;;;;;;;;;5015536;28;20573;-81
2023/07/05 03:27:31;;;;;;;8.90;5.25;;;;;;;;;;5020026;28;20226;-82
2023/07/05 03:29:57;;;;;;;9.48;5.63;;;;;;;;;;5028771;28;20248;-82
2023/07/05 03:32:23;;;;;;;8.07;5.63;;;;;;;;;;5013916;28;20570;-84
2023/07/05 03:34:52;;;;;;;8.15;5.80;;;;;;;;;;5026357;28;20231;-83
2023/07/05 03:37:18;;;;;;;7.22;5.63;;;;;;;;;;5001849;28;20298;-86
2023/07/05 03:39:44;;;;;;;8.15;5.90;;;;;;;;;;5017364;28;20745;-81
2023/07/05 03:42:12;;;;;;;10.45;6.40;;;;;;;;;;5021128;28;20732;-81
2023/07/05 03:44:37;;;;;;;8.02;6.72;;;;;;;;;;5022449;28;20226;-83
2023/07/05 03:47:04;;;;;;;7.43;6.50;;;;;;;;;;5013741;28;20231;-79
2023/07/05 03:49:29;;;;;;;8.88;6.55;;;;;;;;;;4994140;28;20325;-79
2023/07/05 03:51:54;;;;;;;8.13;6.68;;;;;;;;;;5042133;28;20219;-78
2023/07/05 03:54:23;;;;;;;8.10;6.38;;;;;;;;;;5016209;28;20219;-78
2023/07/05 03:56:51;;;;;;;8.40;6.85;;;;;;;;;;5043174;28;20230;-78
2023/07/05 03:59:17;;;;;;;10.80;7.20;;;;;;;;;;5030984;28;20706;-79
2023/07/05 04:01:42;;;;;;;8.52;7.43;;;;;;;;;;5026294;28;20216;-79
2023/07/05 04:04:10;;;;;;;10.60;7.45;;;;;;;;;;5042392;28;20241;-78
2023/07/05 04:06:38;;;;;;;10.23;7.70;;;;;;;;;;5028073;28;20690;-79
2023/07/05 04:09:03;;;;;;;9.68;7.25;;;;;;;;;;5001981;28;20227;-77
2023/07/05 04:11:31;;;;;;;10.07;7.45;;;;;;;;;;5004475;28;20211;-78
2023/07/05 04:13:57;;;;;;;9.82;7.00;;;;;;;;;;5034651;28;20230;-78
2023/07/05 04:16:24;;;;;;;7.82;7.03;;;;;;;;;;5008033;28;20219;-78
2023/07/05 04:18:53;;;;;;;10.77;7.78;;;;;;;;;;5029377;28;20223;-78
2023/07/05 04:21:21;;;;;;;8.13;7.28;;;;;;;;;;5015373;28;20311;-77
2023/07/05 04:23:46;;;;;;;26.65;8.15;;;;;;;;;;5025921;28;20223;-78
2023/07/05 04:26:16;;;;;;;10.85;8.00;;;;;;;;;;5029842;28;20232;-77
2023/07/05 04:28:42;;;;;;;16.92;9.30;;;;;;;;;;5009282;28;20961;-77
2023/07/05 04:31:09;;;;;;;12.18;8.43;;;;;;;;;;5032757;28;20227;-78
2023/07/05 04:33:35;;;;;;;12.95;9.40;;;;;;;;;;5033451;28;20219;-77
2023/07/05 04:36:03;;;;;;;11.00;9.50;;;;;;;;;;5007854;28;20219;-79
2023/07/05 04:38:29;;;;;;;12.35;9.13;;;;;;;;;;5014318;28;20223;-79
2023/07/05 04:40:58;;;;;;;14.07;9.68;;;;;;;;;;5036637;28;20250;-77
2023/07/05 04:43:24;;;;;;;16.50;10.30;;;;;;;;;;5023799;28;20222;-77
2023/07/05 04:45:57;;;;;;;12.68;10.85;;;;;;;;;;5012707;28;20211;-78
2023/07/05 04:48:23;;;;;;;15.07;10.70;;;;;;;;;;4992993;28;20234;-78
2023/07/05 04:50:54;;;;;;;12.77;11.48;;;;;;;;;;5028233;28;20699;-77
2023/07/05 04:53:20;;;;;;;12.98;11.23;;;;;;;;;;5022692;28;20223;-76
2023/07/05 04:55:46;;;;;;;13.60;11.45;;;;;;;;;;5009680;28;21213;-77
2023/07/05 04:58:12;;;;;;;14.43;12.35;;;;;;;;;;5029141;28;20318;-77
2023/07/05 05:00:40;;;;;;;13.55;10.82;;;;;;;;;;5006238;28;20223;-79
2023/07/05 05:03:08;;;;;;;15.00;11.75;;;;;;;;;;5009044;28;20257;-77
2023/07/05 05:05:38;;;;;;;16.48;12.32;;;;;;;;;;5041854;28;20249;-77
2023/07/05 05:08:04;;;;;;;16.13;12.68;;;;;;;;;;5058669;28;20607;-78
2023/07/05 05:10:29;;;;;;;14.63;12.00;;;;;;;;;;5031128;28;20227;-78
2023/07/05 05:15:38;;;;;;;16.17;13.57;;;;;;;;;;5029987;28;20216;-72
2023/07/05 05:18:04;;;;;;;16.27;13.38;;;;;;;;;;4988308;28;20707;-75
2023/07/05 05:20:32;;;;;;;17.37;15.50;;;;;;;;;;5004809;28;20753;-72
2023/07/05 05:22:58;;;;;;;18.52;14.38;;;;;;;;;;4998167;23;20237;-78
2023/07/05 05:25:25;;;;;;;14.68;13.27;;;;;;;;;;4990411;28;20230;-78
2023/07/05 05:27:50;;;;;;;18.50;14.70;;;;;;;;;;4966417;28;20241;-77
2023/07/05 05:30:16;;;;;;;19.65;14.98;;;;;;;;;;4982717;28;20600;-77
2023/07/05 05:32:45;;;;;;;16.23;14.50;;;;;;;;;;4967285;28;20222;-76
2023/07/05 05:35:10;;;;;;;18.00;15.07;;;;;;;;;;4971256;28;20258;-77
2023/07/05 05:37:36;;;;;;;16.63;14.88;;;;;;;;;;4966984;28;20664;-76
2023/07/05 05:40:05;;;;;;;16.38;14.68;;;;;;;;;;4950646;28;20222;-77
2023/07/05 05:42:31;;;;;;;19.43;15.60;;;;;;;;;;4984418;28;20234;-77
2023/07/05 05:44:57;;;;;;;19.50;15.85;;;;;;;;;;4952639;28;20354;-78
2023/07/05 05:47:22;;;;;;;19.10;15.80;;;;;;;;;;4965319;28;20232;-77
2023/07/05 05:49:48;;;;;;;17.23;15.43;;;;;;;;;;4979915;28;20225;-77
2023/07/05 05:52:13;;;;;;;17.40;15.60;;;;;;;;;;4966464;28;20221;-76
2023/07/05 05:54:43;;;;;;;21.75;15.13;;;;;;;;;;4992796;28;20942;-77
2023/07/05 05:57:13;;;;;;;18.30;15.88;;;;;;;;;;4983704;28;20328;-76
2023/07/05 05:59:39;;;;;;;16.63;14.98;;;;;;;;;;5003497;28;20229;-77
2023/07/05 06:02:04;;;;;;;17.10;14.63;;;;;;;;;;4968855;28;20213;-77
2023/07/05 06:04:32;;;;;;;17.40;15.63;;;;;;;;;;5000265;28;20717;-77
2023/07/05 06:06:58;;;;;;;19.85;15.68;;;;;;;;;;5000554;28;20249;-76
2023/07/05 06:09:25;;;;;;;17.27;15.35;;;;;;;;;;4984405;28;20275;-77
2023/07/05 06:11:51;;;;;;;19.23;15.95;;;;;;;;;;4967251;28;20217;-77
2023/07/05 06:14:19;;;;;;;18.13;16.17;;;;;;;;;;4988936;28;20218;-77
2023/07/05 06:16:47;;;;;;;18.17;16.30;;;;;;;;;;5001301;28;20233;-77
2023/07/05 06:19:12;;;;;;;18.73;16.73;;;;;;;;;;4934030;28;20247;-77
2023/07/05 06:21:38;;;;;;;18.85;16.13;;;;;;;;;;4973728;28;20277;-77
2023/07/05 06:24:04;;;;;;;20.08;16.73;;;;;;;;;;4950145;28;20226;-77
2023/07/05 06:26:29;;;;;;;18.23;16.38;;;;;;;;;;4947609;28;20238;-78
2023/07/05 06:28:55;;;;;;;20.97;15.57;;;;;;;;;;4954466;28;20214;-77
2023/07/05 06:31:22;;;;;;;21.85;16.50;;;;;;;;;;4949901;28;20268;-78
2023/07/05 06:33:48;;;;;;;17.93;16.23;;;;;;;;;;4979085;28;20717;-76
2023/07/05 06:36:15;;;;;;;18.60;16.67;;;;;;;;;;4958969;28;20223;-76
2023/07/05 06:38:48;;;;;;;17.50;15.00;;;;;;;;;;4950077;28;20333;-75
2023/07/05 06:41:13;;;;;;;18.97;15.60;;;;;;;;;;4950582;28;20229;-77
2023/07/05 06:43:39;;;;;;;18.63;16.80;;;;;;;;;;4981496;28;20214;-76
2023/07/05 06:46:04;;;;;;;16.70;15.10;;;;;;;;;;4966790;28;20602;-77
2023/07/05 06:48:32;;;;;;;17.13;15.32;;;;;;;;;;4967883;28;20599;-77
2023/07/05 06:51:00;;;;;;;16.63;14.98;;;;;;;;;;4970963;28;20217;-77
2023/07/05 06:53:26;;;;;;;16.83;15.13;;;;;;;;;;4972006;28;20225;-77
2023/07/05 06:55:59;;;;;;;21.63;19.50;;;;;;;;;;4976145;28;20218;-76
2023/07/05 06:58:24;;;;;;;23.00;20.75;;;;;;;;;;4991380;28;20229;-77
2023/07/05 07:00:50;;;;;;;32.70;29.63;;;;;;;;;;4965232;28;20698;-76
2023/07/05 07:03:16;;;;;;;17.00;15.40;;;;;;;;;;4992391;28;20221;-78
2023/07/05 07:05:53;;;;;;;16.08;14.48;;;;;;;;;;5007061;28;20221;-77
2023/07/05 07:08:24;;;;;;;17.20;15.40;;;;;;;;;;5010598;28;20221;-79
2023/07/05 07:10:49;;;;;;;17.25;14.77;;;;;;;;;;4980662;28;20221;-80
2023/07/05 07:13:17;;;;;;;15.75;14.27;;;;;;;;;;4997993;28;20226;-79
2023/07/05 07:15:42;;;;;;;15.57;14.15;;;;;;;;;;5016776;28;20240;-76
2023/07/05 07:18:09;;;;;;;15.70;14.15;;;;;;;;;;5020131;28;20859;-78
2023/07/05 07:20:35;;;;;;;14.15;12.85;;;;;;;;;;5004936;28;20221;-77
2023/07/05 07:23:02;;;;;;;14.57;13.27;;;;;;;;;;4989980;28;20278;-79
2023/07/05 07:25:28;;;;;;;15.48;14.18;;;;;;;;;;5004133;28;20229;-77
2023/07/05 07:27:53;;;;;;;14.88;12.82;;;;;;;;;;5007283;28;20255;-77
2023/07/05 07:30:19;;;;;;;13.63;12.25;;;;;;;;;;5003811;28;20287;-78
2023/07/05 07:32:48;;;;;;;12.43;11.32;;;;;;;;;;4991956;28;20232;-78
2023/07/05 07:35:16;;;;;;;12.25;11.05;;;;;;;;;;4999778;28;20226;-78
2023/07/05 07:37:41;;;;;;;12.25;11.00;;;;;;;;;;4998880;28;20336;-78
2023/07/05 07:40:10;;;;;;;10.07;9.18;;;;;;;;;;5000174;28;20237;-77
2023/07/05 07:42:36;;;;;;;10.35;9.35;;;;;;;;;;4987142;28;20226;-77
2023/07/05 07:45:04;;;;;;;10.57;9.30;;;;;;;;;;5004411;28;20785;-78
2023/07/05 07:47:29;;;;;;;9.25;8.45;;;;;;;;;;4987246;28;20229;-80
2023/07/05 07:49:55;;;;;;;8.38;7.68;;;;;;;;;;5016052;28;20252;-78
2023/07/05 07:52:22;;;;;;;8.40;7.63;;;;;;;;;;4996715;28;20229;-77
2023/07/05 07:54:48;;;;;;;7.40;6.80;;;;;;;;;;5051017;23;20668;-76
2023/07/05 07:57:13;;;;;;;7.80;7.10;;;;;;;;;;4999071;28;20517;-77
2023/07/05 07:59:45;;;;;;;7.55;6.85;;;;;;;;;;4983174;28;20216;-76
2023/07/05 08:02:16;;;;;;;7.22;6.63;;;;;;;;;;4991511;28;20221;-76
2023/07/05 08:04:46;;;;;;;7.03;6.32;;;;;;;;;;4989912;28;20227;-76
2023/07/05 08:07:14;;;;;;;7.22;6.53;;;;;;;;;;5010006;28;20224;-77
2023/07/05 08:09:40;;;;;;;7.30;6.60;;;;;;;;;;5025335;28;20454;-76
2023/07/05 08:12:06;;;;;;;6.78;6.07;;;;;;;;;;5031852;28;20221;-77
2023/07/05 08:14:31;;;;;;;6.50;6.00;;;;;;;;;;4989284;28;20271;-75
2023/07/05 08:16:57;;;;;;;9.45;6.10;;;;;;;;;;5013186;28;20217;-76
2023/07/05 08:19:27;;;;;;;6.32;5.82;;;;;;;;;;4995586;28;20604;-77
2023/07/05 08:21:53;;;;;;;5.32;4.82;;;;;;;;;;4981818;28;20679;-75
2023/07/05 08:24:18;;;;;;;4.90;4.60;;;;;;;;;;5010091;28;20228;-77
2023/07/05 08:26:44;;;;;;;4.65;4.25;;;;;;;;;;4994850;28;20237;-76
2023/07/05 08:29:10;;;;;;;4.20;3.78;;;;;;;;;;5010517;28;20229;-76
2023/07/05 08:31:36;;;;;;;6.00;3.70;;;;;;;;;;4988769;28;20233;-75
2023/07/05 08:34:01;;;;;;;5.60;3.53;;;;;;;;;;4983328;28;20210;-76
2023/07/05 08:36:37;;;;;;;4.03;3.63;;;;;;;;;;4989935;28;20229;-76
2023/07/05 08:39:10;;;;;;;3.35;3.05;;;;;;;;;;5005661;28;20221;-77
2023/07/05 08:41:41;;;;;;;3.85;2.72;;;;;;;;;;5002529;28;20221;-78
2023/07/05 08:44:30;;;;;;;3.55;3.25;;;;;;;;;;4999908;28;20221;-78
2023/07/05 08:47:03;;;;;;;3.78;3.17;;;;;;;;;;4992144;28;20331;-78
2023/07/05 08:49:46;;;;;;;3.03;2.72;;;;;;;;;;5019397;28;20236;-76
2023/07/05 08:52:22;;;;;;;3.45;2.90;;;;;;;;;;5008472;28;20227;-78
2023/07/05 08:54:51;;;;;;;3.28;2.97;;;;;;;;;;5035267;28;20220;-77
2023/07/05 08:57:19;;;;;;;4.25;2.97;;;;;;;;;;5026399;28;20211;-79
2023/07/05 08:59:49;;;;;;;3.25;2.50;;;;;;;;;;5015508;28;20221;-76
2023/07/05 09:02:17;;;;;;;5.63;2.88;;;;;;;;;;4989784;28;20256;-77
2023/07/05 09:04:49;;;;;;;4.43;2.90;;;;;;;;;;4994716;28;20238;-77
2023/07/05 09:07:36;;;;;;;3.03;2.70;;;;;;;;;;4999953;28;20235;-81
2023/07/05 09:10:34;;;;;;;3.30;3.00;;;;;;;;;;5000572;28;20226;-78
2023/07/05 09:13:18;;;;;;;4.47;3.03;;;;;;;;;;5018237;28;20217;-78
2023/07/05 09:15:57;;;;;;;3.22;2.92;;;;;;;;;;5003752;28;20668;-77
2023/07/05 09:18:26;;;;;;;3.40;2.60;;;;;;;;;;4987970;28;20224;-77
2023/07/05 09:21:00;;;;;;;4.40;2.90;;;;;;;;;;5026554;28;20765;-76
2023/07/05 09:23:48;;;;;;;3.22;2.92;;;;;;;;;;5013052;28;20875;-77
2023/07/05 09:26:27;;;;;;;3.47;2.65;;;;;;;;;;4988788;28;20267;-77
2023/07/05 09:29:20;;;;;;;3.83;2.90;;;;;;;;;;5009519;28;20223;-78
2023/07/05 09:31:46;;;;;;;3.85;2.72;;;;;;;;;;5008168;28;20220;-76
2023/07/05 09:34:11;;;;;;;4.47;2.88;;;;;;;;;;4996784;28;20221;-78
2023/07/05 09:36:37;;;;;;;4.70;2.78;;;;;;;;;;5019110;28;20229;-77
2023/07/05 09:39:16;;;;;;;3.88;3.03;;;;;;;;;;4990813;28;20662;-75
2023/07/05 09:41:46;;;;;;;2.45;2.17;;;;;;;;;;4989561;28;20232;-77
2023/07/05 09:44:12;;;;;;;2.88;2.65;;;;;;;;;;4982098;28;20226;-77
2023/07/05 09:46:37;;;;;;;3.50;2.30;;;;;;;;;;4996679;28;20247;-76
2023/07/05 09:49:10;;;;;;;3.75;2.40;;;;;;;;;;5013730;28;20223;-78
2023/07/05 09:51:38;;;;;;;3.63;2.50;;;;;;;;;;5022910;28;20218;-77
2023/07/05 09:54:07;;;;;;;2.75;2.55;;;;;;;;;;4966647;28;20224;-77
2023/07/05 09:56:32;;;;;;;2.45;2.03;;;;;;;;;;5007996;28;20221;-78
2023/07/05 09:59:07;;;;;;;2.30;2.08;;;;;;;;;;4981522;28;20584;-80
2023/07/05 10:01:37;;;;;;;2.67;2.13;;;;;;;;;;5016418;28;20225;-81
2023/07/05 10:04:06;;;;;;;2.95;2.47;;;;;;;;;;4997131;28;20271;-77
2023/07/05 10:06:31;;;;;;;4.07;2.38;;;;;;;;;;5027226;28;20250;-77
2023/07/05 10:09:07;;;;;;;3.38;2.13;;;;;;;;;;4999761;28;20643;-77
2023/07/05 10:11:35;;;;;;;3.90;2.47;;;;;;;;;;5037461;28;20227;-76
2023/07/05 10:14:05;;;;;;;2.92;2.17;;;;;;;;;;4968687;28;20277;-80
2023/07/05 10:17:05;;;;;;;2.17;1.77;;;;;;;;;;5006257;28;20217;-79
2023/07/05 10:19:40;;;;;;;2.63;2.40;;;;;;;;;;5022815;28;20225;-77
2023/07/05 10:22:20;;;;;;;3.55;1.83;;;;;;;;;;5004809;28;20598;-78
2023/07/05 10:24:50;;;;;;;2.28;2.08;;;;;;;;;;4987194;28;20263;-76
2023/07/05 10:27:26;;;;;;;4.72;2.40;;;;;;;;;;5021605;28;20232;-77
2023/07/05 10:30:03;;;;;;;4.05;2.17;;;;;;;;;;5010639;28;20274;-77
2023/07/05 10:32:30;;;;;;;2.33;2.13;;;;;;;;;;5016394;28;20232;-77
2023/07/05 10:34:56;;;;;;;2.53;1.77;;;;;;;;;;5020639;28;20307;-78
2023/07/05 10:37:35;;;;;;;4.15;2.03;;;;;;;;;;4996424;28;20686;-77
2023/07/05 10:40:09;;;;;;;6.45;2.00;;;;;;;;;;5016084;28;20254;-77
2023/07/05 10:42:40;;;;;;;1.85;1.70;;;;;;;;;;5022169;28;20224;-79
2023/07/05 10:45:11;;;;;;;4.40;1.95;;;;;;;;;;5002661;28;20221;-80
2023/07/05 10:47:36;;;;;;;2.78;1.80;;;;;;;;;;4996028;28;20237;-80
2023/07/05 10:50:07;;;;;;;3.38;1.83;;;;;;;;;;4979994;28;20212;-79
2023/07/05 10:52:36;;;;;;;1.90;1.48;;;;;;;;;;5009141;28;20597;-79
2023/07/05 10:55:19;;;;;;;1.80;1.63;;;;;;;;;;5013646;28;20224;-79
2023/07/05 10:57:50;;;;;;;2.88;1.52;;;;;;;;;;5040387;28;20775;-79
2023/07/05 11:00:39;;;;;;;1.60;1.50;;;;;;;;;;5011553;28;20221;-79
2023/07/05 11:03:11;;;;;;;3.30;1.75;;;;;;;;;;5005734;28;20227;-80
2023/07/05 11:05:41;;;;;;;3.95;1.35;;;;;;;;;;5035836;28;20267;-78
2023/07/05 11:08:18;;;;;;;4.10;1.60;;;;;;;;;;5007303;28;20224;-78
2023/07/05 11:10:46;;;;;;;2.78;1.80;;;;;;;;;;5023447;28;20215;-80
2023/07/05 11:13:15;;;;;;;4.05;1.60;;;;;;;;;;5014952;28;20211;-79
2023/07/05 11:15:46;;;;;;;5.20;1.60;;;;;;;;;;5029458;28;20220;-77
2023/07/05 11:18:23;;;;;;;5.93;2.03;;;;;;;;;;5031189;28;20238;-80
2023/07/05 11:20:56;;;;;;;2.88;1.52;;;;;;;;;;5007913;28;20235;-79
2023/07/05 11:23:46;;;;;;;2.95;1.60;;;;;;;;;;5028894;28;20229;-80
2023/07/05 11:26:27;;;;;;;6.43;1.58;;;;;;;;;;5007539;28;20220;-79
2023/07/05 11:28:53;;;;;;;3.35;1.60;;;;;;;;;;5037356;28;20224;-79
2023/07/05 11:31:27;;;;;;;1.90;1.70;;;;;;;;;;5021926;28;20220;-79
2023/07/05 11:34:32;;;;;;;1.60;1.50;;;;;;;;;;5024767;28;20231;-78
2023/07/05 11:37:03;;;;;;;1.45;1.35;;;;;;;;;;5027587;28;20222;-78
2023/07/05 11:39:45;;;;;;;3.55;1.50;;;;;;;;;;5040914;28;20265;-79
2023/07/05 11:42:14;;;;;;;1.52;1.30;;;;;;;;;;5032604;28;20222;-78
2023/07/05 11:44:40;;;;;;;3.42;1.70;;;;;;;;;;5003442;28;20220;-78
2023/07/05 11:47:11;;;;;;;5.13;1.70;;;;;;;;;;4985827;28;20221;-78
2023/07/05 11:49:41;;;;;;;2.22;1.58;;;;;;;;;;4997374;28;20679;-79
2023/07/05 11:52:22;;;;;;;1.85;1.45;;;;;;;;;;5014570;28;20219;-77
2023/07/05 11:55:10;;;;;;;1.85;1.40;;;;;;;;;;5002402;28;20232;-78
2023/07/05 11:58:05;;;;;;;3.15;1.40;;;;;;;;;;5024746;28;20648;-78
2023/07/05 12:00:41;;;;;;;1.80;1.25;;;;;;;;;;5020789;28;20221;-80
2023/07/05 12:03:13;;;;;;;1.88;1.40;;;;;;;;;;5002268;28;21078;-78
2023/07/05 12:05:39;;;;;;;3.15;1.27;;;;;;;;;;5012406;28;20225;-81
2023/07/05 12:08:22;;;;;;;2.58;1.67;;;;;;;;;;4984397;28;20233;-79
2023/07/05 12:11:01;;;;;;;2.88;1.60;;;;;;;;;;5008176;28;20375;-79
2023/07/05 12:13:30;;;;;;;2.60;1.63;;;;;;;;;;5030486;28;20254;-78
2023/07/05 12:15:58;;;;;;;2.60;1.60;;;;;;;;;;5021645;28;20241;-81
2023/07/05 12:18:24;;;;;;;3.08;1.35;;;;;;;;;;5019737;28;20231;-80
2023/07/05 12:20:53;;;;;;;2.78;1.67;;;;;;;;;;5011408;28;20220;-77
2023/07/05 12:23:18;;;;;;;2.97;1.58;;;;;;;;;;4998651;28;20311;-78
2023/07/05 12:25:49;;;;;;;3.55;1.80;;;;;;;;;;5013847;28;20701;-78
2023/07/05 12:28:16;;;;;;;5.18;2.00;;;;;;;;;;4997045;28;20229;-76
2023/07/05 12:30:44;;;;;;;5.10;1.58;;;;;;;;;;5005951;28;20245;-78
2023/07/05 12:33:21;;;;;;;5.13;1.83;;;;;;;;;;4977558;28;20228;-78
2023/07/05 12:35:47;;;;;;;2.97;1.50;;;;;;;;;;5015594;28;20220;-79
2023/07/05 12:38:19;;;;;;;2.03;1.73;;;;;;;;;;5013479;28;20278;-79
2023/07/05 12:40:48;;;;;;;4.00;1.90;;;;;;;;;;5005136;28;20221;-77
2023/07/05 12:43:14;;;;;;;3.75;1.60;;;;;;;;;;5006791;28;20221;-78
2023/07/05 12:45:40;;;;;;;4.47;1.63;;;;;;;;;;4989924;28;20232;-78
2023/07/05 12:48:36;;;;;;;2.20;1.80;;;;;;;;;;5001766;28;20231;-77
2023/07/05 12:51:20;;;;;;;3.17;1.52;;;;;;;;;;5015449;28;22502;-77
2023/07/05 12:53:47;;;;;;;4.18;1.75;;;;;;;;;;5016863;28;20233;-79
2023/07/05 12:56:16;;;;;;;2.80;1.70;;;;;;;;;;4980511;28;20254;-78
2023/07/05 12:59:06;;;;;;;2.55;1.63;;;;;;;;;;5021898;28;20229;-78
2023/07/05 13:01:42;;;;;;;5.05;2.40;;;;;;;;;;5021813;28;20225;-76
2023/07/05 13:04:12;;;;;;;3.25;1.95;;;;;;;;;;5015785;28;20220;-78
2023/07/05 13:06:48;;;;;;;3.67;2.08;;;;;;;;;;4984866;28;20683;-79
2023/07/05 13:09:30;;;;;;;6.43;2.08;;;;;;;;;;5008778;28;20224;-80
2023/07/05 13:12:03;;;;;;;2.17;1.98;;;;;;;;;;5014652;28;20232;-79
2023/07/05 13:14:33;;;;;;;5.32;2.40;;;;;;;;;;5015954;28;20228;-78
2023/07/05 13:17:12;;;;;;;3.75;2.75;;;;;;;;;;5018955;28;20224;-77
2023/07/05 13:19:56;;;;;;;59.65;53.42;;;;;;;;;;5021211;28;20705;-81
2023/07/05 13:22:30;;;;;;;8.73;7.25;;;;;;;;;;5034184;28;20312;-79
2023/07/05 13:24:57;;;;;;;3.35;3.05;;;;;;;;;;4997574;28;20228;-79
2023/07/05 13:27:31;;;;;;;5.32;2.78;;;;;;;;;;5018247;28;20217;-78
2023/07/05 13:30:21;;;;;;;6.00;2.90;;;;;;;;;;5020818;28;20246;-78
2023/07/05 13:32:54;;;;;;;8.93;3.00;;;;;;;;;;4980761;28;20221;-81
2023/07/05 13:35:27;;;;;;;5.78;3.13;;;;;;;;;;4984501;28;20723;-79
2023/07/05 13:37:55;;;;;;;3.67;2.90;;;;;;;;;;4997011;28;20309;-80
2023/07/05 13:40:25;;;;;;;7.93;3.00;;;;;;;;;;5005249;28;20248;-79
2023/07/05 13:42:54;;;;;;;4.65;2.80;;;;;;;;;;4981236;28;20232;-80
2023/07/05 13:45:20;;;;;;;3.70;2.63;;;;;;;;;;5034131;28;20635;-80
2023/07/05 13:47:45;;;;;;;2.78;2.47;;;;;;;;;;5020520;28;20225;-81
2023/07/05 13:50:14;;;;;;;3.15;2.35;;;;;;;;;;5000968;28;20263;-87
2023/07/05 13:52:41;;;;;;;4.45;2.65;;;;;;;;;;4997247;28;20224;-85
2023/07/05 13:55:09;;;;;;;2.60;2.22;;;;;;;;;;5006494;28;20229;-86
2023/07/05 13:57:37;;;;;;;3.65;2.38;;;;;;;;;;4991927;28;20220;-84
2023/07/05 14:00:09;;;;;;;3.45;2.60;;;;;;;;;;5033693;28;20223;-85
2023/07/05 14:02:40;;;;;;;4.70;2.28;;;;;;;;;;4998077;28;20244;-83
2023/07/05 14:05:08;;;;;;;4.03;2.50;;;;;;;;;;5014244;28;20226;-87
2023/07/05 14:07:34;;;;;;;6.57;2.55;;;;;;;;;;4970188;28;20233;-86
2023/07/05 14:10:02;;;;;;;4.03;2.40;;;;;;;;;;4999982;28;20221;-85
2023/07/05 14:12:30;;;;;;;3.50;2.33;;;;;;;;;;4982782;28;20211;-87
2023/07/05 14:14:55;;;;;;;3.67;1.95;;;;;;;;;;5024062;28;20220;-86
2023/07/05 14:17:22;;;;;;;4.28;2.50;;;;;;;;;;5014790;28;20220;-86
2023/07/05 14:19:48;;;;;;;4.57;2.25;;;;;;;;;;5025049;28;20232;-87
2023/07/05 14:22:21;;;;;;;6.03;2.20;;;;;;;;;;5031839;28;20200;-86
2023/07/05 14:24:48;;;;;;;2.90;2.47;;;;;;;;;;5011484;28;20225;-85
2023/07/05 14:27:24;;;;;;;4.18;2.13;;;;;;;;;;5012030;28;20264;-87
2023/07/05 14:29:52;;;;;;;4.22;2.08;;;;;;;;;;5020859;28;20216;-84
2023/07/05 14:32:23;;;;;;;4.28;1.98;;;;;;;;;;5028043;28;20212;-89
2023/07/05 14:34:49;;;;;;;4.05;2.50;;;;;;;;;;5024096;28;20308;-86
2023/07/05 14:37:17;;;;;;;4.30;2.05;;;;;;;;;;4999838;28;20224;-87
2023/07/05 14:39:43;;;;;;;3.42;2.17;;;;;;;;;;5040541;28;20223;-83
2023/07/05 14:42:12;;;;;;;5.60;2.03;;;;;;;;;;5028346;28;20249;-83
2023/07/05 14:44:37;;;;;;;4.47;2.17;;;;;;;;;;5041608;28;20226;-83
2023/07/05 14:47:03;;;;;;;3.08;2.22;;;;;;;;;;5008406;28;20293;-81
2023/07/05 14:49:29;;;;;;;4.90;1.95;;;;;;;;;;5008641;28;20227;-82
2023/07/05 14:51:54;;;;;;;3.15;2.00;;;;;;;;;;5021828;28;20221;-79
2023/07/05 14:54:22;;;;;;;6.50;1.92;;;;;;;;;;4982727;28;20217;-79